createdAt,value
2018-06-22T00:01:22.276Z,0.90
2018-06-22T00:03:57.276Z,1.10
2018-06-22T00:06:32.557Z,0.77
2018-06-22T00:09:08.780Z,0.60
2018-06-22T00:11:43.880Z,1.27
2018-06-22T00:14:19.016Z,0.70
2018-06-22T00:16:54.164Z,0.80
2018-06-22T00:19:29.159Z,0.70
2018-06-22T00:22:04.169Z,0.90
2018-06-22T00:24:39.323Z,1.00
2018-06-22T00:27:14.244Z,0.70
2018-06-22T00:29:49.404Z,0.90
2018-06-22T00:32:24.340Z,0.73
2018-06-22T00:34:59.425Z,1.03
2018-06-22T00:37:34.458Z,0.80
2018-06-22T00:40:09.391Z,0.60
2018-06-22T00:42:44.352Z,0.70
2018-06-22T00:45:19.574Z,1.07
2018-06-22T00:47:54.625Z,0.80
2018-06-22T00:50:29.723Z,0.83
2018-06-22T00:53:15.252Z,0.70
2018-06-22T00:55:51.032Z,0.80
2018-06-22T00:58:26.081Z,0.80
2018-06-22T01:01:01.216Z,1.00
2018-06-22T01:03:36.335Z,0.77
2018-06-22T01:06:11.407Z,0.60
2018-06-22T01:08:46.544Z,0.80
2018-06-22T01:11:21.437Z,0.73
2018-06-22T01:13:56.248Z,0.77
2018-06-22T01:16:31.322Z,0.80
2018-06-22T01:19:06.632Z,0.87
2018-06-22T01:21:42.148Z,0.70
2018-06-22T01:24:17.120Z,0.60
2018-06-22T01:26:52.164Z,0.40
2018-06-22T01:29:30.836Z,0.90
2018-06-22T01:32:05.950Z,0.50
2018-06-22T01:34:40.904Z,0.70
2018-06-22T01:37:15.963Z,0.70
2018-06-22T01:39:51.020Z,0.90
2018-06-22T01:42:26.110Z,0.77
2018-06-22T01:45:01.148Z,0.97
2018-06-22T01:47:36.300Z,0.70
2018-06-22T01:50:11.500Z,1.00
2018-06-22T01:52:46.600Z,0.90
2018-06-22T01:55:21.436Z,0.70
2018-06-22T01:57:56.559Z,0.60
2018-06-22T02:00:31.652Z,1.23
2018-06-22T02:03:06.693Z,0.93
2018-06-22T02:05:41.837Z,0.90
2018-06-22T02:08:16.982Z,0.90
2018-06-22T02:10:52.059Z,1.10
2018-06-22T02:13:26.987Z,0.50
2018-06-22T02:16:01.928Z,0.80
2018-06-22T02:18:36.903Z,0.70
2018-06-22T02:21:11.978Z,0.90
2018-06-22T02:23:47.007Z,0.90
2018-06-22T02:26:22.660Z,0.60
2018-06-22T02:28:57.707Z,0.77
2018-06-22T02:31:32.792Z,1.03
2018-06-22T02:34:07.765Z,1.10
2018-06-22T02:36:42.808Z,0.60
2018-06-22T02:39:17.960Z,0.57
2018-06-22T02:41:53.025Z,0.77
2018-06-22T02:44:28.180Z,0.60
2018-06-22T02:47:03.288Z,0.70
2018-06-22T02:49:38.218Z,1.00
2018-06-22T02:52:13.240Z,0.60
2018-06-22T02:54:48.407Z,1.00
2018-06-22T02:57:23.661Z,1.00
2018-06-22T02:59:58.805Z,0.80
2018-06-22T03:02:33.676Z,0.70
2018-06-22T03:05:08.796Z,1.07
2018-06-22T03:07:43.849Z,0.77
2018-06-22T03:10:18.781Z,0.80
2018-06-22T03:12:53.900Z,0.70
2018-06-22T03:15:28.956Z,1.10
2018-06-22T03:18:04.214Z,0.90
2018-06-22T03:20:39.263Z,0.90
2018-06-22T03:23:14.261Z,1.17
2018-06-22T03:25:49.560Z,0.80
2018-06-22T03:28:24.651Z,1.10
2018-06-22T03:30:59.631Z,1.13
2018-06-22T03:33:34.708Z,0.90
2018-06-22T03:36:09.813Z,1.30
2018-06-22T03:38:44.863Z,1.00
2018-06-22T03:41:20.074Z,1.13
2018-06-22T03:43:55.182Z,1.03
2018-06-22T03:46:30.308Z,1.10
2018-06-22T03:49:05.448Z,1.30
2018-06-22T03:51:40.227Z,0.90
2018-06-22T03:54:15.175Z,0.80
2018-06-22T03:56:50.141Z,1.10
2018-06-22T03:59:25.044Z,1.00
2018-06-22T04:02:00.076Z,0.90
2018-06-22T04:04:35.184Z,1.17
2018-06-22T04:07:10.464Z,1.03
2018-06-22T04:09:45.792Z,0.93
2018-06-22T04:12:20.891Z,1.13
2018-06-22T04:14:56.024Z,0.90
2018-06-22T04:17:34.260Z,0.67
2018-06-22T04:20:09.331Z,1.10
2018-06-22T04:22:44.308Z,1.27
2018-06-22T04:25:20.909Z,0.80
2018-06-22T04:27:56.085Z,1.00
2018-06-22T04:30:31.000Z,1.17
2018-06-22T04:33:06.076Z,1.00
2018-06-22T04:35:41.644Z,1.00
2018-06-22T04:38:16.705Z,1.20
2018-06-22T04:40:51.639Z,1.03
2018-06-22T04:43:26.751Z,1.10
2018-06-22T04:46:02.007Z,1.20
2018-06-22T04:48:36.982Z,0.90
2018-06-22T04:51:12.033Z,1.20
2018-06-22T04:53:47.007Z,1.20
2018-06-22T04:56:22.584Z,1.00
2018-06-22T04:58:57.547Z,1.20
2018-06-22T05:01:32.486Z,0.93
2018-06-22T05:04:07.480Z,1.03
2018-06-22T05:06:42.484Z,1.00
2018-06-22T05:09:17.656Z,1.13
2018-06-22T05:11:52.671Z,0.87
2018-06-22T05:14:27.636Z,0.93
2018-06-22T05:17:02.780Z,1.10
2018-06-22T05:19:37.792Z,1.10
2018-06-22T05:22:12.856Z,1.07
2018-06-22T05:24:48.010Z,1.00
2018-06-22T05:27:22.946Z,1.10
2018-06-22T05:29:58.080Z,1.30
2018-06-22T05:32:33.346Z,1.40
2018-06-22T05:35:08.444Z,1.13
2018-06-22T05:37:43.564Z,1.30
2018-06-22T05:40:18.668Z,1.10
2018-06-22T05:42:53.840Z,0.90
2018-06-22T05:45:28.967Z,1.17
2018-06-22T05:48:03.976Z,1.33
2018-06-22T05:50:38.971Z,1.10
2018-06-22T05:53:13.942Z,1.00
2018-06-22T05:55:49.126Z,1.30
2018-06-22T05:58:24.105Z,1.03
2018-06-22T06:00:59.247Z,2.40
2018-06-22T06:03:34.656Z,2.53
2018-06-22T06:06:09.640Z,2.60
2018-06-22T06:08:44.772Z,2.40
2018-06-22T06:11:19.923Z,2.43
2018-06-22T06:13:55.001Z,2.73
2018-06-22T06:16:30.105Z,2.30
2018-06-22T06:19:05.521Z,2.17
2018-06-22T06:21:40.571Z,2.30
2018-06-22T06:24:15.749Z,2.10
2018-06-22T06:26:50.678Z,2.40
2018-06-22T06:29:25.413Z,2.50
2018-06-22T06:32:00.255Z,3.30
2018-06-22T06:34:35.316Z,2.70
2018-06-22T06:37:10.418Z,2.90
2018-06-22T06:39:45.556Z,2.80
2018-06-22T06:42:20.504Z,5.40
2018-06-22T06:44:55.472Z,9.67
2018-06-22T06:47:30.569Z,3.70
2018-06-22T06:50:05.720Z,4.87
2018-06-22T06:52:40.942Z,2.60
2018-06-22T06:55:15.903Z,3.37
2018-06-22T06:57:51.024Z,3.60
2018-06-22T07:00:25.979Z,2.47
2018-06-22T07:03:01.173Z,2.80
2018-06-22T07:05:36.198Z,2.70
2018-06-22T07:08:11.211Z,2.80
2018-06-22T07:10:46.372Z,2.60
2018-06-22T07:13:21.516Z,2.90
2018-06-22T07:15:56.604Z,2.63
2018-06-22T07:18:31.723Z,2.17
2018-06-22T07:21:06.796Z,2.40
2018-06-22T07:23:41.831Z,2.50
2018-06-22T07:26:17.002Z,2.20
2018-06-22T07:28:52.075Z,1.93
2018-06-22T07:31:27.036Z,2.00
2018-06-22T07:34:02.041Z,1.87
2018-06-22T07:36:37.053Z,2.13
2018-06-22T07:39:12.544Z,2.30
2018-06-22T07:41:47.696Z,2.17
2018-06-22T07:44:22.662Z,2.80
2018-06-22T07:46:57.756Z,2.70
2018-06-22T07:49:32.848Z,2.90
2018-06-22T07:52:08.028Z,2.73
2018-06-22T07:54:43.152Z,2.80
2018-06-22T07:57:18.238Z,2.93
2018-06-22T07:59:53.208Z,3.00
2018-06-22T08:02:28.376Z,2.40
2018-06-22T08:05:03.357Z,1.93
2018-06-22T08:07:38.352Z,2.57
2018-06-22T08:10:13.468Z,2.53
2018-06-22T08:12:49.211Z,2.77
2018-06-22T08:15:24.277Z,2.17
2018-06-22T08:17:59.359Z,1.83
2018-06-22T08:20:34.512Z,2.43
2018-06-22T08:23:09.661Z,2.40
2018-06-22T08:25:44.706Z,2.00
2018-06-22T08:28:19.764Z,2.60
2018-06-22T08:30:54.721Z,2.10
2018-06-22T08:33:29.812Z,2.23
2018-06-22T08:36:04.908Z,2.17
2018-06-22T08:38:39.678Z,1.90
2018-06-22T08:41:14.565Z,3.07
2018-06-22T08:43:49.511Z,2.83
2018-06-22T08:46:24.609Z,1.70
2018-06-22T08:48:59.799Z,1.73
2018-06-22T08:51:34.685Z,2.40
2018-06-22T08:54:09.879Z,2.67
2018-06-22T08:56:44.848Z,2.53
2018-06-22T08:59:19.859Z,2.00
2018-06-22T09:01:54.933Z,2.20
2018-06-22T09:04:29.883Z,1.43
2018-06-22T09:07:04.965Z,1.83
2018-06-22T09:09:40.025Z,1.73
2018-06-22T09:12:15.164Z,2.23
2018-06-22T09:14:51.442Z,1.70
2018-06-22T09:17:26.836Z,1.30
2018-06-22T09:20:01.784Z,1.00
2018-06-22T09:22:37.095Z,1.80
2018-06-22T09:25:12.177Z,1.40
2018-06-22T09:27:47.265Z,1.10
2018-06-22T09:30:22.311Z,1.23
2018-06-22T09:32:57.276Z,1.67
2018-06-22T09:35:32.384Z,1.93
2018-06-22T09:38:07.389Z,1.60
2018-06-22T09:40:42.365Z,1.60
2018-06-22T09:43:17.448Z,1.70
2018-06-22T09:45:53.164Z,1.37
2018-06-22T09:48:28.339Z,1.60
2018-06-22T09:51:03.252Z,1.60
2018-06-22T09:53:38.244Z,1.57
2018-06-22T09:56:13.492Z,1.10
2018-06-22T09:58:48.675Z,1.53
2018-06-22T10:01:23.763Z,1.40
2018-06-22T10:03:58.712Z,1.33
2018-06-22T10:06:33.712Z,1.43
2018-06-22T10:09:10.611Z,1.40
2018-06-22T10:11:45.532Z,1.67
2018-06-22T10:14:20.517Z,1.33
2018-06-22T10:16:55.439Z,1.63
2018-06-22T10:19:30.607Z,1.27
2018-06-22T10:22:05.637Z,1.40
2018-06-22T10:24:40.581Z,1.10
2018-06-22T10:27:15.586Z,1.13
2018-06-22T10:29:50.564Z,1.50
2018-06-22T10:32:25.736Z,1.00
2018-06-22T10:35:00.742Z,1.57
2018-06-22T10:37:35.796Z,1.47
2018-06-22T10:40:10.749Z,1.60
2018-06-22T10:42:45.963Z,1.17
2018-06-22T10:45:21.752Z,1.23
2018-06-22T10:47:57.232Z,1.50
2018-06-22T10:50:32.500Z,1.60
2018-06-22T10:53:07.664Z,1.20
2018-06-22T10:55:42.860Z,1.43
2018-06-22T10:58:17.860Z,1.00
2018-06-22T11:00:53.052Z,1.23
2018-06-22T11:03:28.124Z,1.40
2018-06-22T11:06:03.198Z,1.63
2018-06-22T11:08:38.343Z,1.20
2018-06-22T11:11:13.460Z,1.40
2018-06-22T11:13:48.569Z,1.40
2018-06-22T11:16:23.570Z,1.20
2018-06-22T11:18:58.520Z,1.37
2018-06-22T11:21:33.848Z,1.50
2018-06-22T11:24:08.768Z,1.43
2018-06-22T11:26:43.859Z,1.30
2018-06-22T11:29:18.792Z,1.10
2018-06-22T11:31:53.776Z,1.10
2018-06-22T11:34:28.859Z,1.23
2018-06-22T11:37:03.952Z,1.20
2018-06-22T11:39:39.035Z,1.30
2018-06-22T11:42:14.059Z,1.17
2018-06-22T11:44:49.073Z,1.40
2018-06-22T11:47:24.264Z,1.20
2018-06-22T11:49:59.255Z,1.70
2018-06-22T11:52:34.296Z,1.40
2018-06-22T11:55:09.252Z,1.37
2018-06-22T11:57:44.388Z,1.73
2018-06-22T12:00:19.340Z,1.10
2018-06-22T12:02:54.325Z,1.40
2018-06-22T12:05:29.511Z,1.20
2018-06-22T12:08:04.735Z,1.37
2018-06-22T12:10:39.723Z,2.13
2018-06-22T12:13:14.720Z,1.67
2018-06-22T12:15:49.672Z,1.50
2018-06-22T12:18:24.755Z,1.90
2018-06-22T12:20:59.880Z,1.27
2018-06-22T12:23:35.083Z,1.40
2018-06-22T12:26:10.212Z,1.50
2018-06-22T12:28:45.357Z,1.67
2018-06-22T12:31:20.395Z,1.13
2018-06-22T12:33:55.327Z,1.30
2018-06-22T12:36:30.329Z,1.63
2018-06-22T12:39:08.400Z,1.30
2018-06-22T12:41:44.336Z,1.60
2018-06-22T12:44:19.416Z,1.47
2018-06-22T12:46:54.655Z,1.70
2018-06-22T12:49:29.733Z,1.60
2018-06-22T12:52:05.043Z,1.30
2018-06-22T12:54:40.016Z,1.00
2018-06-22T12:57:15.132Z,1.00
2018-06-22T12:59:50.201Z,1.27
2018-06-22T13:02:25.160Z,0.77
2018-06-22T13:05:00.267Z,0.97
2018-06-22T13:07:35.323Z,1.00
2018-06-22T13:10:10.388Z,0.90
2018-06-22T13:12:45.556Z,1.20
2018-06-22T13:15:20.492Z,0.63
2018-06-22T13:17:55.566Z,1.23
2018-06-22T13:20:30.580Z,1.10
2018-06-22T13:23:06.219Z,1.00
2018-06-22T13:25:41.168Z,1.47
2018-06-22T13:28:16.271Z,1.13
2018-06-22T13:30:51.268Z,1.33
2018-06-22T13:33:26.364Z,1.37
2018-06-22T13:36:01.957Z,1.43
2018-06-22T13:38:37.179Z,1.10
2018-06-22T13:41:12.245Z,0.93
2018-06-22T13:43:47.330Z,1.60
2018-06-22T13:46:22.267Z,1.57
2018-06-22T13:48:57.467Z,1.30
2018-06-22T13:51:32.428Z,1.50
2018-06-22T13:54:08.916Z,1.90
2018-06-22T13:56:44.074Z,1.60
2018-06-22T13:59:19.019Z,1.60
2018-06-22T14:01:54.033Z,1.43
2018-06-22T14:04:34.680Z,1.20
2018-06-22T14:07:09.824Z,1.33
2018-06-22T14:09:44.883Z,1.27
2018-06-22T14:12:19.927Z,1.80
2018-06-22T14:14:54.950Z,1.30
2018-06-22T14:17:30.086Z,1.30
2018-06-22T14:20:05.111Z,1.30
2018-06-22T14:22:40.153Z,1.23
2018-06-22T14:25:15.215Z,1.40
2018-06-22T14:27:50.297Z,0.90
2018-06-22T14:30:25.280Z,1.10
2018-06-22T14:33:00.208Z,1.20
2018-06-22T14:35:35.232Z,0.90
2018-06-22T14:38:10.244Z,1.30
2018-06-22T14:40:45.520Z,1.00
2018-06-22T14:43:20.680Z,0.80
2018-06-22T14:45:56.232Z,1.13
2018-06-22T14:48:31.348Z,1.20
2018-06-22T14:51:06.364Z,1.07
2018-06-22T14:53:46.696Z,1.13
2018-06-22T14:56:27.179Z,1.30
2018-06-22T14:59:07.624Z,1.10
2018-06-22T15:01:48.316Z,1.10
2018-06-22T15:04:28.700Z,1.13
2018-06-22T15:07:09.032Z,0.90
2018-06-22T15:09:43.981Z,0.90
2018-06-22T15:12:19.037Z,0.93
2018-06-22T15:14:54.005Z,1.17
2018-06-22T15:17:29.009Z,1.23
2018-06-22T15:20:04.120Z,1.37
2018-06-22T15:22:39.143Z,1.43
2018-06-22T15:25:14.384Z,1.23
2018-06-22T15:27:49.419Z,1.17
2018-06-22T15:30:24.423Z,1.30
2018-06-22T15:32:59.476Z,1.23
2018-06-22T15:35:39.892Z,1.13
2018-06-22T15:38:32.192Z,1.20
2018-06-22T15:41:12.891Z,1.40
2018-06-22T15:43:53.443Z,1.30
2018-06-22T15:46:33.824Z,1.23
2018-06-22T15:49:14.328Z,0.93
2018-06-22T15:51:54.979Z,1.30
2018-06-22T15:54:35.720Z,1.23
2018-06-22T15:57:10.904Z,1.50
2018-06-22T15:59:45.959Z,1.00
2018-06-22T16:02:26.413Z,1.17
2018-06-22T16:05:01.452Z,1.13
2018-06-22T16:07:36.732Z,1.20
2018-06-22T16:10:11.855Z,0.90
2018-06-22T16:12:46.892Z,1.10
2018-06-22T16:15:27.022Z,0.90
2018-06-22T16:18:07.564Z,1.10
2018-06-22T16:20:48.171Z,1.40
2018-06-22T16:23:28.815Z,1.00
2018-06-22T16:26:09.151Z,1.07
2018-06-22T16:28:44.097Z,1.10
2018-06-22T16:31:19.032Z,1.30
2018-06-22T16:33:56.204Z,1.30
2018-06-22T16:36:31.043Z,1.60
2018-06-22T16:39:09.170Z,1.50
2018-06-22T16:41:44.243Z,1.40
2018-06-22T16:44:19.313Z,1.43
2018-06-22T16:46:54.496Z,1.53
2018-06-22T16:49:29.564Z,1.40
2018-06-22T16:52:04.692Z,1.60
2018-06-22T16:54:39.656Z,1.47
2018-06-22T16:57:14.700Z,1.33
2018-06-22T16:59:50.309Z,1.30
2018-06-22T17:02:25.385Z,1.30
2018-06-22T17:05:00.449Z,1.50
2018-06-22T17:07:40.994Z,1.43
2018-06-22T17:10:21.436Z,1.53
2018-06-22T17:13:02.123Z,2.00
2018-06-22T17:15:42.588Z,1.30
2018-06-22T17:18:22.859Z,1.40
2018-06-22T17:20:57.908Z,1.10
2018-06-22T17:23:32.908Z,1.77
2018-06-22T17:26:08.070Z,1.30
2018-06-22T17:28:43.087Z,1.87
2018-06-22T17:31:18.189Z,1.50
2018-06-22T17:33:53.291Z,1.33
2018-06-22T17:36:28.304Z,1.57
2018-06-22T17:39:03.488Z,1.90
2018-06-22T17:41:38.491Z,1.80
2018-06-22T17:44:13.503Z,1.70
2018-06-22T17:46:48.536Z,1.37
2018-06-22T17:49:23.755Z,1.10
2018-06-22T17:51:58.820Z,1.70
2018-06-22T17:54:33.875Z,1.40
2018-06-22T17:57:09.080Z,1.47
2018-06-22T17:59:49.624Z,1.37
2018-06-22T18:02:30.720Z,1.93
2018-06-22T18:05:11.303Z,1.40
2018-06-22T18:07:47.927Z,1.30
2018-06-22T18:10:28.307Z,1.60
2018-06-22T18:13:04.151Z,1.60
2018-06-22T18:15:38.992Z,1.67
2018-06-22T18:18:14.231Z,1.47
2018-06-22T18:20:49.335Z,1.40
2018-06-22T18:23:24.388Z,1.33
2018-06-22T18:25:59.424Z,1.57
2018-06-22T18:28:35.280Z,1.20
2018-06-22T18:31:10.375Z,1.60
2018-06-22T18:33:45.573Z,2.10
2018-06-22T18:36:20.577Z,1.40
2018-06-22T18:38:55.796Z,1.83
2018-06-22T18:41:31.127Z,2.23
2018-06-22T18:44:06.136Z,1.43
2018-06-22T18:46:41.076Z,2.03
2018-06-22T18:49:16.192Z,1.90
2018-06-22T18:51:56.841Z,1.80
2018-06-22T18:54:37.137Z,1.83
2018-06-22T18:57:17.499Z,1.97
2018-06-22T18:59:57.619Z,1.90
2018-06-22T19:02:38.064Z,1.77
2018-06-22T19:05:13.080Z,1.70
2018-06-22T19:07:48.176Z,1.97
2018-06-22T19:10:23.128Z,1.63
2018-06-22T19:12:58.221Z,1.90
2018-06-22T19:15:33.527Z,2.40
2018-06-22T19:18:08.644Z,1.77
2018-06-22T19:20:43.649Z,1.70
2018-06-22T19:23:18.776Z,1.90
2018-06-22T19:25:53.903Z,1.73
2018-06-22T19:28:29.031Z,2.13
2018-06-22T19:31:04.000Z,1.80
2018-06-22T19:33:38.949Z,2.17
2018-06-22T19:36:14.159Z,1.90
2018-06-22T19:38:49.416Z,1.97
2018-06-22T19:41:24.616Z,2.07
2018-06-22T19:44:05.139Z,2.20
2018-06-22T19:46:45.696Z,2.17
2018-06-22T19:49:25.872Z,2.13
2018-06-22T19:52:06.260Z,1.50
2018-06-22T19:54:41.240Z,1.83
2018-06-22T19:57:16.344Z,2.07
2018-06-22T19:59:51.392Z,2.07
2018-06-22T20:02:26.262Z,2.03
2018-06-22T20:05:01.176Z,1.73
2018-06-22T20:07:37.632Z,2.00
2018-06-22T20:10:12.703Z,2.07
2018-06-22T20:12:47.711Z,2.27
2018-06-22T20:15:24.419Z,2.40
2018-06-22T20:17:59.574Z,2.33
2018-06-22T20:20:34.528Z,1.97
2018-06-22T20:23:09.625Z,2.23
2018-06-22T20:25:44.616Z,2.40
2018-06-22T20:28:19.572Z,2.70
2018-06-22T20:30:54.653Z,2.27
2018-06-22T20:33:29.809Z,2.60
2018-06-22T20:36:10.338Z,2.30
2018-06-22T20:38:50.648Z,2.70
2018-06-22T20:41:30.896Z,1.97
2018-06-22T20:44:11.340Z,2.13
2018-06-22T20:46:51.847Z,3.33
2018-06-22T20:49:32.552Z,2.30
2018-06-22T20:52:07.565Z,2.27
2018-06-22T20:54:42.520Z,2.10
2018-06-22T20:57:17.631Z,2.37
2018-06-22T20:59:52.784Z,1.90
2018-06-22T21:02:27.916Z,2.77
2018-06-22T21:05:02.936Z,2.20
2018-06-22T21:07:37.967Z,2.40
2018-06-22T21:10:13.021Z,2.13
2018-06-22T21:12:47.972Z,2.37
2018-06-22T21:15:23.024Z,2.03
2018-06-22T21:17:58.032Z,1.77
2018-06-22T21:20:33.156Z,1.97
2018-06-22T21:23:08.229Z,2.27
2018-06-22T21:25:43.336Z,2.30
2018-06-22T21:29:23.260Z,2.53
2018-06-22T21:32:03.777Z,2.57
2018-06-22T21:34:44.312Z,2.13
2018-06-22T21:37:24.723Z,2.17
2018-06-22T21:39:59.734Z,2.30
2018-06-22T21:42:34.684Z,2.10
2018-06-22T21:45:09.751Z,2.67
2018-06-22T21:47:44.843Z,2.13
2018-06-22T21:50:19.823Z,2.20
2018-06-22T21:52:54.786Z,2.70
2018-06-22T21:55:29.847Z,2.00
2018-06-22T21:58:04.868Z,2.10
2018-06-22T22:00:39.845Z,2.20
2018-06-22T22:03:14.983Z,2.47
2018-06-22T22:05:50.076Z,2.20
2018-06-22T22:08:25.168Z,2.33
2018-06-22T22:11:05.592Z,2.03
2018-06-22T22:13:41.001Z,2.07
2018-06-22T22:16:15.916Z,2.20
2018-06-22T22:18:51.052Z,2.10
2018-06-22T22:21:26.016Z,2.03
2018-06-22T22:24:01.132Z,1.97
2018-06-22T22:26:36.142Z,2.50
2018-06-22T22:29:11.389Z,2.40
2018-06-22T22:31:46.419Z,2.40
2018-06-22T22:34:21.688Z,2.50
2018-06-22T22:36:56.620Z,2.27
2018-06-22T22:39:31.768Z,2.80
2018-06-22T22:42:06.619Z,2.23
2018-06-22T22:44:41.306Z,2.47
2018-06-22T22:47:16.184Z,3.80
2018-06-22T22:49:51.324Z,2.60
2018-06-22T22:52:26.436Z,3.07
2018-06-22T22:55:01.559Z,2.50
2018-06-22T22:57:36.507Z,3.03
2018-06-22T23:00:11.692Z,2.50
2018-06-22T23:02:46.636Z,2.60
2018-06-22T23:05:21.635Z,2.57
2018-06-22T23:07:56.643Z,2.80
2018-06-22T23:10:31.611Z,2.07
2018-06-22T23:13:06.495Z,2.67
2018-06-22T23:15:41.392Z,3.27
2018-06-22T23:18:16.580Z,2.47
2018-06-22T23:20:51.728Z,2.70
2018-06-22T23:23:36.872Z,2.27
2018-06-22T23:26:11.812Z,2.83
2018-06-22T23:28:47.008Z,2.97
2018-06-22T23:31:22.115Z,2.23
2018-06-22T23:33:57.296Z,2.40
2018-06-22T23:36:32.330Z,3.10
2018-06-22T23:39:08.885Z,2.80
2018-06-22T23:41:43.948Z,2.77
2018-06-22T23:44:18.970Z,3.33
2018-06-22T23:46:54.264Z,2.70
2018-06-22T23:49:29.233Z,3.23
2018-06-22T23:52:04.369Z,2.97
2018-06-22T23:54:39.420Z,2.63
2018-06-22T23:57:14.579Z,2.70
2018-06-22T23:59:49.744Z,3.20
